Airfield :
LOGIN :

Register | Disclaimer

   EN    FR    IT 

 










Legend :    VFR   Marginal VFR   IFR   Intensive IFR   Very Intensive IFR
Visi :
Ceiling :
>= 8 km
>= 3000ft
5 to 8 km
1000 to 3000 ft
1500m to 5 km
500 to 1000 ft
800 to 1500m
200 to 500 ft
< 800m
< 200 ft
Symbols :   Thunderstorms  Fog  Heavy snow  Heavy precipitations  Wind > 20 kt
SIGMETs :     Misc.  Thunderstorms  Icing  Turbulence  Mountain Waves  Volcanic Ashes






- Airport Elevation : 788 ft
- IATA code : DCM


LFCK - Castres-Mazamet

CURRENT METAR :
  • 061530Z AUTO 28021KT 9999 BKN047 25/13 Q1021 BECMG 32010KT

EXPIRED METARs :
  • 061500Z AUTO 29021KT 9999 BKN045 25/14 Q1021 BECMG 31018G28KT
  • 061430Z AUTO 29018KT 9999 SCT036 SCT042 25/15 Q1021 TEMPO 31017G28KT
  • 061400Z AUTO 29019KT 9999 FEW030 SCT035 BKN049 24/15 Q1021 TEMPO 31017G28KT
  • 061330Z AUTO 29018KT 9999 BKN029 BKN047 23/16 Q1022 TEMPO 31017G28KT
  • 061300Z AUTO 31017KT 9999 BKN033 OVC043 23/15 Q1022 TEMPO 31017G28KT

TAF TAF LFCK
Valid from the 06 at 15:00 until the 07 at 00:00 UTC


061400Z 0615/0624 31018G28KT 9999 SCT040
BECMG 0617/0619 32010KT CAVOK



MET'MAP, your aeronautical weather chart ! - Copyright ORBIFLY December 2007 - Disclaimer

ORBIFLY MET'MAP TEAM :

Programming & Development : Alexandra Zaïnal
Concept & original design : Baudouin d'Aumeries
Assistance for programming : Marc-Olivier Méhu
Technical & hardware support : Manuel Goepfert

Contact : metmap@orbifly.com




SOURCES & CREDITS :

   NOAA